createdAt,value
2023-03-03T00:00:51.325Z,41.80
2023-03-03T00:01:53.377Z,40.85
2023-03-03T00:03:01.499Z,43.85
2023-03-03T00:04:04.942Z,41.92
2023-03-03T00:05:10.220Z,42.75
2023-03-03T00:06:14.806Z,42.78
2023-03-03T00:07:23.429Z,43.40
2023-03-03T00:08:27.239Z,41.25
2023-03-03T00:09:29.050Z,42.85
2023-03-03T00:10:31.430Z,42.15
2023-03-03T00:11:36.330Z,41.25
2023-03-03T00:12:48.101Z,41.55
2023-03-03T00:13:53.689Z,42.70
2023-03-03T00:14:56.260Z,41.83
2023-03-03T00:16:31.643Z,40.92
2023-03-03T00:17:34.529Z,38.05
2023-03-03T00:18:40.924Z,42.05
2023-03-03T00:19:45.269Z,42.42
2023-03-03T00:20:54.894Z,42.50
2023-03-03T00:21:58.915Z,39.65
2023-03-03T00:23:39.700Z,36.97
2023-03-03T00:24:41.846Z,39.90
2023-03-03T00:25:46.229Z,39.13
2023-03-03T00:26:52.278Z,39.58
2023-03-03T00:27:56.262Z,38.35
2023-03-03T00:28:59.343Z,39.08
2023-03-03T00:30:01.664Z,37.25
2023-03-03T00:31:17.804Z,37.00
2023-03-03T00:32:19.705Z,38.25
2023-03-03T00:33:35.264Z,38.70
2023-03-03T00:34:38.240Z,38.13
2023-03-03T00:35:41.608Z,36.63
2023-03-03T00:36:44.620Z,38.35
2023-03-03T00:37:49.126Z,39.42
2023-03-03T00:38:52.521Z,39.05
2023-03-03T00:39:58.202Z,40.65
2023-03-03T00:41:00.356Z,39.80
2023-03-03T00:42:11.763Z,40.25
2023-03-03T00:43:34.423Z,37.35
2023-03-03T00:44:41.754Z,39.42
2023-03-03T00:45:53.383Z,40.13
2023-03-03T00:46:57.060Z,43.15
2023-03-03T00:48:33.410Z,41.17
2023-03-03T00:49:35.347Z,39.72
2023-03-03T00:50:40.290Z,39.13
2023-03-03T00:51:44.362Z,43.58
2023-03-03T00:52:59.471Z,39.58
2023-03-03T00:54:01.685Z,39.00
2023-03-03T00:55:05.714Z,42.78
2023-03-03T00:56:07.852Z,38.42
2023-03-03T00:57:09.951Z,39.03
2023-03-03T00:58:11.675Z,39.30
2023-03-03T00:59:14.604Z,38.15
2023-03-03T01:00:16.884Z,37.50
2023-03-03T01:01:19.126Z,36.97
2023-03-03T01:02:24.492Z,40.08
2023-03-03T01:03:28.667Z,39.38
2023-03-03T01:04:30.867Z,36.17
2023-03-03T01:05:33.956Z,38.50
2023-03-03T01:06:36.101Z,37.45
2023-03-03T01:07:39.373Z,37.97
2023-03-03T01:08:41.659Z,36.30
2023-03-03T01:09:43.789Z,36.55
2023-03-03T01:10:53.605Z,35.92
2023-03-03T01:11:56.337Z,36.38
2023-03-03T01:12:58.866Z,36.95
2023-03-03T01:14:00.881Z,37.75
2023-03-03T01:15:02.869Z,37.65
2023-03-03T01:16:06.628Z,37.05
2023-03-03T01:17:09.327Z,38.78
2023-03-03T01:18:13.128Z,39.10
2023-03-03T01:19:15.370Z,40.20
2023-03-03T01:20:18.390Z,39.70
2023-03-03T01:21:21.303Z,42.13
2023-03-03T01:22:23.476Z,39.22
2023-03-03T01:23:25.308Z,39.83
2023-03-03T01:24:27.579Z,40.08
2023-03-03T01:25:31.082Z,39.65
2023-03-03T01:26:32.929Z,39.20
2023-03-03T01:27:36.252Z,39.70
2023-03-03T01:28:37.992Z,43.95
2023-03-03T01:29:40.748Z,40.85
2023-03-03T01:30:42.982Z,41.42
2023-03-03T01:31:45.765Z,40.42
2023-03-03T01:32:50.500Z,42.28
2023-03-03T01:33:53.391Z,40.67
2023-03-03T01:34:55.337Z,41.78
2023-03-03T01:35:59.343Z,40.13
2023-03-03T01:37:02.762Z,42.85
2023-03-03T01:38:04.817Z,43.67
2023-03-03T01:39:07.030Z,42.88
2023-03-03T01:40:19.214Z,43.08
2023-03-03T01:41:21.374Z,40.65
2023-03-03T01:42:23.842Z,39.42
2023-03-03T01:43:33.836Z,40.70
2023-03-03T01:44:36.746Z,40.33
2023-03-03T01:45:47.405Z,43.03
2023-03-03T01:47:00.842Z,43.72
2023-03-03T01:48:30.617Z,43.38
2023-03-03T01:49:51.804Z,41.70
2023-03-03T01:51:05.263Z,43.85
2023-03-03T01:52:22.071Z,42.53
2023-03-03T01:53:34.411Z,40.38
2023-03-03T01:54:48.246Z,42.33
2023-03-03T01:55:53.975Z,40.50
2023-03-03T01:57:04.322Z,40.65
2023-03-03T01:58:21.296Z,38.47
2023-03-03T01:59:28.220Z,37.38
2023-03-03T02:00:31.725Z,37.63
2023-03-03T02:01:35.232Z,37.10
2023-03-03T02:02:38.181Z,37.60
2023-03-03T02:03:40.767Z,38.53
2023-03-03T02:04:44.052Z,35.90
2023-03-03T02:05:46.083Z,35.92
2023-03-03T02:06:52.639Z,37.63
2023-03-03T02:07:55.338Z,40.78
2023-03-03T02:09:23.674Z,37.55
2023-03-03T02:10:26.991Z,37.10
2023-03-03T02:11:32.074Z,39.05
2023-03-03T02:12:43.530Z,38.40
2023-03-03T02:13:45.399Z,38.22
2023-03-03T02:14:47.546Z,38.33
2023-03-03T02:15:49.640Z,39.50
2023-03-03T02:16:53.011Z,38.60
2023-03-03T02:18:04.156Z,39.92
2023-03-03T02:19:20.491Z,38.60
2023-03-03T02:20:39.206Z,39.13
2023-03-03T02:21:41.779Z,40.55
2023-03-03T02:23:34.685Z,41.33
2023-03-03T02:24:58.316Z,42.72
2023-03-03T02:26:23.511Z,41.55
2023-03-03T02:27:27.923Z,42.22
2023-03-03T02:28:32.942Z,42.83
2023-03-03T02:29:36.949Z,44.85
2023-03-03T02:30:40.194Z,44.72
2023-03-03T02:31:43.476Z,41.70
2023-03-03T02:32:47.837Z,43.58
2023-03-03T02:33:52.549Z,43.60
2023-03-03T02:34:54.449Z,45.50
2023-03-03T02:35:56.793Z,42.88
2023-03-03T02:37:00.349Z,42.53
2023-03-03T02:38:17.934Z,43.05
2023-03-03T02:39:23.179Z,44.42
2023-03-03T02:40:28.659Z,39.25
2023-03-03T02:41:34.139Z,41.47
2023-03-03T02:42:37.559Z,41.35
2023-03-03T02:43:53.576Z,39.60
2023-03-03T02:44:55.691Z,37.28
2023-03-03T02:45:58.597Z,41.47
2023-03-03T02:47:01.434Z,40.38
2023-03-03T02:48:03.167Z,42.95
2023-03-03T02:49:06.458Z,42.97
2023-03-03T02:50:09.061Z,43.95
2023-03-03T02:51:11.678Z,43.47
2023-03-03T02:52:15.153Z,43.22
2023-03-03T02:53:17.844Z,43.55
2023-03-03T02:54:21.782Z,42.75
2023-03-03T02:55:23.625Z,40.38
2023-03-03T02:56:27.611Z,42.40
2023-03-03T02:57:29.437Z,42.60
2023-03-03T02:58:32.562Z,43.20
2023-03-03T02:59:34.491Z,45.00
2023-03-03T03:00:36.387Z,45.30
2023-03-03T03:01:39.806Z,42.47
2023-03-03T03:02:42.562Z,41.22
2023-03-03T03:03:44.377Z,42.65
2023-03-03T03:04:47.328Z,43.17
2023-03-03T03:05:50.571Z,43.22
2023-03-03T03:06:53.345Z,43.22
2023-03-03T03:07:55.595Z,45.03
2023-03-03T03:08:58.220Z,47.17
2023-03-03T03:10:00.953Z,47.00
2023-03-03T03:11:06.196Z,46.67
2023-03-03T03:12:08.881Z,46.78
2023-03-03T03:13:13.139Z,46.53
2023-03-03T03:14:16.164Z,45.30
2023-03-03T03:15:17.815Z,44.85
2023-03-03T03:16:19.968Z,44.33
2023-03-03T03:17:23.811Z,46.25
2023-03-03T03:18:27.223Z,46.03
2023-03-03T03:19:29.818Z,47.22
2023-03-03T03:20:31.378Z,47.22
2023-03-03T03:21:34.826Z,45.08
2023-03-03T03:22:38.101Z,47.90
2023-03-03T03:23:41.448Z,46.25
2023-03-03T03:24:44.814Z,49.13
2023-03-03T03:25:49.008Z,48.75
2023-03-03T03:26:50.782Z,48.33
2023-03-03T03:27:54.332Z,46.85
2023-03-03T03:28:56.424Z,50.30
2023-03-03T03:29:58.536Z,47.30
2023-03-03T03:31:00.947Z,49.20
2023-03-03T03:32:04.312Z,47.85
2023-03-03T03:33:08.180Z,47.13
2023-03-03T03:34:10.398Z,46.70
2023-03-03T03:35:12.870Z,45.33
2023-03-03T03:36:15.053Z,48.83
2023-03-03T03:37:17.429Z,48.90
2023-03-03T03:38:20.982Z,47.40
2023-03-03T03:39:23.158Z,46.50
2023-03-03T03:40:29.373Z,48.80
2023-03-03T03:41:31.458Z,47.28
2023-03-03T03:42:33.924Z,47.50
2023-03-03T03:43:37.546Z,46.25
2023-03-03T03:44:40.345Z,45.67
2023-03-03T03:45:43.744Z,41.63
2023-03-03T03:46:46.772Z,49.05
2023-03-03T03:47:49.726Z,48.10
2023-03-03T03:48:51.542Z,45.97
2023-03-03T03:49:54.421Z,44.08
2023-03-03T03:50:56.843Z,46.33
2023-03-03T03:51:58.880Z,45.33
2023-03-03T03:53:01.877Z,47.45
2023-03-03T03:54:04.655Z,46.40
2023-03-03T03:55:09.403Z,47.40
2023-03-03T03:56:11.734Z,47.80
2023-03-03T03:57:14.737Z,46.88
2023-03-03T03:58:18.069Z,46.03
2023-03-03T03:59:20.170Z,49.33
2023-03-03T04:00:22.344Z,49.13
2023-03-03T04:01:25.321Z,47.38
2023-03-03T04:02:28.183Z,48.60
2023-03-03T04:03:30.205Z,47.97
2023-03-03T04:04:33.597Z,45.85
2023-03-03T04:05:35.815Z,47.22
2023-03-03T04:06:38.418Z,47.47
2023-03-03T04:07:44.245Z,49.33
2023-03-03T04:08:46.609Z,46.88
2023-03-03T04:09:49.581Z,47.35
2023-03-03T04:10:51.421Z,47.60
2023-03-03T04:11:53.319Z,49.28
2023-03-03T04:12:56.647Z,46.00
2023-03-03T04:14:01.290Z,45.40
2023-03-03T04:15:04.207Z,45.83
2023-03-03T04:16:06.300Z,47.85
2023-03-03T04:17:08.318Z,47.80
2023-03-03T04:18:13.250Z,49.38
2023-03-03T04:19:15.029Z,48.15
2023-03-03T04:20:18.051Z,46.20
2023-03-03T04:21:24.191Z,46.15
2023-03-03T04:22:26.992Z,48.45
2023-03-03T04:23:29.039Z,44.70
2023-03-03T04:24:30.686Z,46.22
2023-03-03T04:25:32.593Z,45.55
2023-03-03T04:26:34.386Z,45.25
2023-03-03T04:27:38.439Z,45.30
2023-03-03T04:28:42.309Z,46.75
2023-03-03T04:29:44.212Z,42.75
2023-03-03T04:30:48.826Z,45.33
2023-03-03T04:31:57.822Z,47.70
2023-03-03T04:33:01.331Z,44.13
2023-03-03T04:34:04.006Z,43.22
2023-03-03T04:35:17.048Z,47.50
2023-03-03T04:36:20.069Z,45.45
2023-03-03T04:37:22.193Z,48.80
2023-03-03T04:38:26.494Z,53.72
2023-03-03T04:39:30.702Z,50.53
2023-03-03T04:40:32.757Z,48.60
2023-03-03T04:41:35.541Z,49.88
2023-03-03T04:42:39.821Z,52.97
2023-03-03T04:43:42.426Z,51.45
2023-03-03T04:44:44.272Z,51.80
2023-03-03T04:45:46.217Z,52.63
2023-03-03T04:46:48.204Z,51.92
2023-03-03T04:47:51.203Z,54.80
2023-03-03T04:48:53.542Z,50.78
2023-03-03T04:49:55.960Z,48.67
2023-03-03T04:50:59.710Z,49.90
2023-03-03T04:52:01.700Z,51.65
2023-03-03T04:53:03.786Z,50.47
2023-03-03T04:54:05.701Z,48.90
2023-03-03T04:55:10.556Z,47.83
2023-03-03T04:56:14.157Z,47.58
2023-03-03T04:57:16.512Z,43.13
2023-03-03T04:58:19.833Z,51.60
2023-03-03T04:59:21.768Z,50.50
2023-03-03T05:00:23.924Z,46.28
2023-03-03T05:01:27.154Z,45.28
2023-03-03T05:02:30.284Z,46.78
2023-03-03T05:03:32.385Z,43.80
2023-03-03T05:04:35.178Z,43.88
2023-03-03T05:05:37.251Z,45.33
2023-03-03T05:06:41.470Z,43.58
2023-03-03T05:07:43.197Z,42.38
2023-03-03T05:08:47.056Z,44.47
2023-03-03T05:09:50.736Z,44.10
2023-03-03T05:10:56.020Z,44.28
2023-03-03T05:11:57.860Z,46.45
2023-03-03T05:13:00.223Z,46.85
2023-03-03T05:14:03.553Z,47.15
2023-03-03T05:15:09.894Z,45.53
2023-03-03T05:16:12.754Z,46.28
2023-03-03T05:17:14.614Z,46.17
2023-03-03T05:18:19.562Z,48.42
2023-03-03T05:19:21.493Z,48.22
2023-03-03T05:20:23.950Z,46.50
2023-03-03T05:21:26.844Z,47.58
2023-03-03T05:22:29.002Z,45.97
2023-03-03T05:23:31.568Z,48.92
2023-03-03T05:24:33.987Z,49.88
2023-03-03T05:25:36.861Z,48.58
2023-03-03T05:26:40.131Z,49.15
2023-03-03T05:27:41.794Z,48.38
2023-03-03T05:28:45.125Z,48.92
2023-03-03T05:29:49.942Z,49.72
2023-03-03T05:30:52.177Z,45.15
2023-03-03T05:31:54.519Z,46.88
2023-03-03T05:32:56.516Z,49.47
2023-03-03T05:33:58.937Z,47.38
2023-03-03T05:35:01.311Z,43.00
2023-03-03T05:36:03.077Z,46.88
2023-03-03T05:37:06.913Z,43.90
2023-03-03T05:38:09.348Z,46.58
2023-03-03T05:39:12.368Z,46.45
2023-03-03T05:40:15.371Z,47.90
2023-03-03T05:41:18.006Z,44.30
2023-03-03T05:42:21.003Z,46.35
2023-03-03T05:43:25.813Z,43.50
2023-03-03T05:44:28.441Z,43.40
2023-03-03T05:45:30.581Z,44.25
2023-03-03T05:46:32.501Z,44.10
2023-03-03T05:47:37.800Z,43.60
2023-03-03T05:48:40.222Z,44.28
2023-03-03T05:49:42.062Z,45.20
2023-03-03T05:50:47.197Z,42.83
2023-03-03T05:51:50.090Z,42.05
2023-03-03T05:52:54.969Z,43.00
2023-03-03T05:53:57.339Z,43.30
2023-03-03T05:55:02.212Z,46.22
2023-03-03T05:56:05.180Z,43.75
2023-03-03T05:57:07.198Z,43.25
2023-03-03T05:58:14.646Z,45.92
2023-03-03T05:59:16.423Z,45.50
2023-03-03T06:00:20.788Z,44.50
2023-03-03T06:01:25.318Z,45.97
2023-03-03T06:02:27.502Z,42.47
2023-03-03T06:03:29.763Z,45.20
2023-03-03T06:04:32.860Z,44.28
2023-03-03T06:05:34.867Z,43.65
2023-03-03T06:06:37.582Z,41.78
2023-03-03T06:07:40.237Z,45.25
2023-03-03T06:08:42.247Z,44.85
2023-03-03T06:09:45.489Z,44.63
2023-03-03T06:10:47.750Z,45.83
2023-03-03T06:11:49.921Z,46.47
2023-03-03T06:12:52.746Z,46.25
2023-03-03T06:13:54.323Z,47.47
2023-03-03T06:14:57.145Z,43.58
2023-03-03T06:15:58.871Z,44.95
2023-03-03T06:17:01.626Z,46.20
2023-03-03T06:18:04.419Z,44.33
2023-03-03T06:19:06.317Z,42.45
2023-03-03T06:20:09.373Z,42.05
2023-03-03T06:21:14.706Z,41.50
2023-03-03T06:22:18.573Z,39.65
2023-03-03T06:23:24.110Z,42.53
2023-03-03T06:24:30.518Z,40.65
2023-03-03T06:25:36.043Z,42.30
2023-03-03T06:26:38.579Z,41.33
2023-03-03T06:27:41.031Z,42.97
2023-03-03T06:28:43.374Z,41.00
2023-03-03T06:29:46.513Z,40.95
2023-03-03T06:30:48.458Z,40.33
2023-03-03T06:31:51.268Z,43.75
2023-03-03T06:32:55.742Z,43.78
2023-03-03T06:33:59.016Z,41.22
2023-03-03T06:35:02.136Z,63.58
2023-03-03T06:36:07.156Z,60.08
2023-03-03T06:37:09.936Z,58.40
2023-03-03T06:38:14.783Z,70.95
2023-03-03T06:39:17.069Z,66.85
2023-03-03T06:40:20.786Z,56.50
2023-03-03T06:41:23.839Z,54.95
2023-03-03T06:42:29.226Z,52.67
2023-03-03T06:43:34.578Z,49.65
2023-03-03T06:44:37.128Z,47.85
2023-03-03T06:45:41.034Z,46.15
2023-03-03T06:46:43.092Z,48.75
2023-03-03T06:47:45.179Z,47.45
2023-03-03T06:48:47.220Z,50.33
2023-03-03T06:49:49.474Z,47.80
2023-03-03T06:50:52.122Z,48.42
2023-03-03T06:51:56.229Z,48.38
2023-03-03T06:53:14.688Z,45.20
2023-03-03T06:54:26.875Z,49.83
2023-03-03T06:55:29.754Z,51.80
2023-03-03T06:56:37.503Z,56.60
2023-03-03T06:57:41.683Z,66.90
2023-03-03T06:58:45.278Z,72.30
2023-03-03T06:59:53.355Z,75.05
2023-03-03T07:00:59.740Z,58.80
2023-03-03T07:02:02.020Z,55.50
2023-03-03T07:03:16.226Z,68.75
2023-03-03T07:04:34.832Z,60.53
2023-03-03T07:05:38.089Z,48.75
2023-03-03T07:06:40.278Z,48.55
2023-03-03T07:07:42.968Z,38.15
2023-03-03T07:08:47.566Z,38.58
2023-03-03T07:09:54.153Z,47.90
2023-03-03T07:10:56.896Z,42.72
2023-03-03T07:12:10.846Z,43.53
2023-03-03T07:13:23.336Z,48.08
2023-03-03T07:14:26.321Z,44.42
2023-03-03T07:15:36.184Z,40.80
2023-03-03T07:16:39.687Z,39.97
2023-03-03T07:17:46.418Z,41.80
2023-03-03T07:19:05.866Z,43.38
2023-03-03T07:20:23.928Z,44.05
2023-03-03T07:21:38.021Z,43.65
2023-03-03T07:22:42.014Z,38.70
2023-03-03T07:23:48.833Z,39.95
2023-03-03T07:24:55.932Z,41.05
2023-03-03T07:25:58.820Z,38.72
2023-03-03T07:27:08.522Z,37.63
2023-03-03T07:28:26.819Z,37.67
2023-03-03T07:29:32.185Z,42.95
2023-03-03T07:30:37.669Z,42.92
2023-03-03T07:31:49.443Z,44.58
2023-03-03T07:32:54.977Z,48.25
2023-03-03T07:33:59.803Z,46.33
2023-03-03T07:35:31.418Z,48.20
2023-03-03T07:36:38.099Z,45.97
2023-03-03T07:37:45.300Z,46.38
2023-03-03T07:38:59.636Z,48.20
2023-03-03T07:40:07.659Z,45.53
2023-03-03T07:41:26.306Z,45.90
2023-03-03T07:42:41.533Z,45.83
2023-03-03T07:43:55.108Z,44.25
2023-03-03T07:45:01.206Z,46.08
2023-03-03T07:46:12.053Z,44.00
2023-03-03T07:47:26.623Z,45.17
2023-03-03T07:48:37.387Z,43.85
2023-03-03T07:49:41.744Z,42.72
2023-03-03T07:50:45.418Z,42.85
2023-03-03T07:51:47.839Z,43.45
2023-03-03T07:52:57.105Z,43.15
2023-03-03T07:54:43.791Z,42.15
2023-03-03T07:55:47.047Z,42.00
2023-03-03T07:56:49.340Z,44.05
2023-03-03T07:57:58.123Z,42.63
2023-03-03T07:59:22.128Z,40.50
2023-03-03T08:00:24.624Z,41.40
2023-03-03T08:01:31.147Z,37.30
2023-03-03T08:03:13.020Z,38.03
2023-03-03T08:04:18.491Z,36.90
2023-03-03T08:05:29.022Z,36.88
2023-03-03T08:06:38.962Z,41.67
2023-03-03T08:07:41.742Z,39.45
2023-03-03T08:08:47.485Z,37.25
2023-03-03T08:09:52.593Z,35.72
2023-03-03T08:10:58.001Z,35.10
2023-03-03T08:12:08.155Z,35.10
2023-03-03T08:13:39.833Z,37.35
2023-03-03T08:14:42.084Z,34.13
2023-03-03T08:15:47.128Z,33.85
2023-03-03T08:16:50.722Z,35.33
2023-03-03T08:17:57.139Z,35.50
2023-03-03T08:19:06.069Z,35.55
2023-03-03T08:20:44.452Z,35.13
2023-03-03T08:21:50.118Z,34.85
2023-03-03T08:22:54.005Z,35.42
2023-03-03T08:23:56.363Z,34.72
2023-03-03T08:24:59.823Z,36.33
2023-03-03T08:26:05.167Z,36.10
2023-03-03T08:27:07.304Z,34.45
2023-03-03T08:28:11.236Z,34.85
2023-03-03T08:29:13.505Z,33.67
2023-03-03T08:30:16.174Z,34.90
2023-03-03T08:31:34.353Z,34.60
2023-03-03T08:32:41.566Z,34.60
2023-03-03T08:33:47.345Z,36.30
2023-03-03T08:34:49.283Z,35.28
2023-03-03T08:35:54.950Z,35.63
2023-03-03T08:36:59.848Z,32.33
2023-03-03T08:38:03.015Z,33.60
2023-03-03T08:39:07.643Z,34.60
2023-03-03T08:40:10.896Z,34.55
2023-03-03T08:41:15.544Z,33.60
2023-03-03T08:42:19.267Z,35.28
2023-03-03T08:43:25.273Z,35.10
2023-03-03T08:44:27.685Z,35.80
2023-03-03T08:45:34.960Z,36.75
2023-03-03T08:46:41.809Z,38.08
2023-03-03T08:47:46.586Z,35.40
2023-03-03T08:48:48.916Z,35.60
2023-03-03T08:49:52.152Z,33.92
2023-03-03T08:50:57.146Z,39.53
2023-03-03T08:52:00.869Z,38.00
2023-03-03T08:53:07.272Z,35.42
2023-03-03T08:54:09.278Z,33.45
2023-03-03T08:55:16.442Z,34.67
2023-03-03T08:56:18.244Z,35.60
2023-03-03T08:57:27.726Z,37.63
2023-03-03T08:58:35.140Z,39.95
2023-03-03T08:59:39.198Z,35.33
2023-03-03T09:00:44.001Z,37.97
2023-03-03T09:01:46.574Z,41.50
2023-03-03T09:02:51.270Z,36.47
2023-03-03T09:03:53.418Z,37.47
2023-03-03T09:04:55.558Z,38.42
2023-03-03T09:05:58.400Z,37.63
2023-03-03T09:07:03.987Z,35.90
2023-03-03T09:08:08.862Z,36.97
2023-03-03T09:09:15.108Z,35.40
2023-03-03T09:10:31.747Z,37.78
2023-03-03T09:11:35.161Z,37.97
2023-03-03T09:12:45.146Z,36.13
2023-03-03T09:13:53.440Z,41.42
2023-03-03T09:15:04.778Z,36.58
2023-03-03T09:16:17.530Z,37.25
2023-03-03T09:17:34.779Z,39.05
2023-03-03T09:18:39.868Z,38.03
2023-03-03T09:19:42.633Z,37.03
2023-03-03T09:20:49.250Z,36.72
2023-03-03T09:21:55.516Z,37.13
2023-03-03T09:23:18.381Z,35.53
2023-03-03T09:24:29.753Z,33.90
2023-03-03T09:25:37.294Z,32.50
2023-03-03T09:26:49.261Z,35.25
2023-03-03T09:27:55.217Z,34.40
2023-03-03T09:29:20.544Z,36.43
2023-03-03T09:30:45.671Z,34.13
2023-03-03T09:32:02.936Z,32.28
2023-03-03T09:33:31.575Z,34.60
2023-03-03T09:34:36.752Z,36.80
2023-03-03T09:35:41.457Z,32.15
2023-03-03T09:36:48.577Z,34.50
2023-03-03T09:37:52.149Z,35.30
2023-03-03T09:38:58.542Z,33.90
2023-03-03T09:40:01.019Z,33.53
2023-03-03T09:41:29.122Z,34.07
2023-03-03T09:43:06.191Z,35.95
2023-03-03T09:44:53.565Z,33.72
2023-03-03T09:46:33.642Z,34.07
2023-03-03T09:48:00.312Z,32.87
2023-03-03T09:49:15.761Z,35.03
2023-03-03T09:50:37.772Z,31.97
2023-03-03T09:52:06.279Z,31.87
2023-03-03T09:53:52.828Z,34.83
2023-03-03T09:55:24.328Z,32.53
2023-03-03T09:56:38.420Z,33.33
2023-03-03T09:58:18.042Z,33.40
2023-03-03T10:00:16.215Z,37.27
2023-03-03T10:01:33.453Z,32.93
2023-03-03T10:02:56.855Z,32.90
2023-03-03T10:04:45.631Z,33.00
2023-03-03T10:05:58.387Z,33.57
2023-03-03T10:07:44.759Z,32.60
2023-03-03T10:09:31.134Z,32.20
2023-03-03T10:10:46.078Z,34.30
2023-03-03T10:12:17.434Z,31.80
2023-03-03T10:13:33.624Z,33.17
2023-03-03T10:15:15.539Z,32.57
2023-03-03T10:16:23.823Z,33.20
2023-03-03T10:17:59.665Z,36.03
2023-03-03T10:19:10.146Z,33.07
2023-03-03T10:20:23.767Z,35.20
2023-03-03T10:21:31.814Z,34.53
2023-03-03T10:23:22.548Z,34.50
2023-03-03T10:24:31.598Z,33.37
2023-03-03T10:25:50.723Z,32.73
2023-03-03T10:27:19.699Z,32.43
2023-03-03T10:28:54.534Z,33.43
2023-03-03T10:30:39.882Z,36.13
2023-03-03T10:32:27.445Z,33.63
2023-03-03T10:33:53.871Z,35.70
2023-03-03T10:35:30.962Z,33.70
2023-03-03T10:36:50.426Z,36.73
2023-03-03T10:38:15.212Z,35.97
2023-03-03T10:39:30.837Z,35.50
2023-03-03T10:41:09.859Z,35.30
2023-03-03T10:42:57.030Z,36.47
2023-03-03T10:44:29.261Z,36.50
2023-03-03T10:45:49.794Z,35.73
2023-03-03T10:47:17.469Z,36.80
2023-03-03T10:50:23.863Z,34.87
2023-03-03T10:51:44.506Z,36.00
2023-03-03T10:52:53.836Z,35.77
2023-03-03T10:54:31.247Z,35.33
2023-03-03T10:56:18.190Z,35.30
2023-03-03T10:58:01.170Z,34.77
2023-03-03T10:59:06.202Z,35.87
2023-03-03T11:00:31.328Z,35.80
2023-03-03T11:02:07.163Z,35.63
2023-03-03T11:03:43.738Z,34.67
2023-03-03T11:05:00.225Z,35.40
2023-03-03T11:06:15.526Z,33.30
2023-03-03T11:07:37.867Z,33.33
2023-03-03T11:09:03.103Z,32.80
2023-03-03T11:10:43.379Z,33.97
2023-03-03T11:12:48.256Z,30.93
2023-03-03T11:13:53.690Z,32.77
2023-03-03T11:15:18.914Z,32.40
2023-03-03T11:16:35.930Z,31.17
2023-03-03T11:17:53.245Z,32.13
2023-03-03T11:19:36.363Z,32.50
2023-03-03T11:20:42.386Z,32.93
2023-03-03T11:22:05.640Z,35.20
2023-03-03T11:23:44.736Z,31.27
2023-03-03T11:24:59.773Z,33.30
2023-03-03T11:26:10.525Z,34.60
2023-03-03T11:27:33.803Z,31.10
2023-03-03T11:28:45.054Z,31.53
2023-03-03T11:30:11.775Z,32.57
2023-03-03T11:31:22.423Z,30.53
2023-03-03T11:33:09.349Z,31.53
2023-03-03T11:34:39.052Z,30.43
2023-03-03T11:36:11.394Z,30.40
2023-03-03T11:37:51.346Z,32.20
2023-03-03T11:38:57.612Z,30.07
2023-03-03T11:40:11.117Z,30.67
2023-03-03T11:41:28.774Z,30.90
2023-03-03T11:42:44.654Z,30.60
2023-03-03T11:43:59.857Z,29.00
2023-03-03T11:45:29.446Z,29.00
2023-03-03T11:46:50.040Z,29.87
2023-03-03T11:48:16.600Z,31.20
2023-03-03T11:49:26.657Z,31.33
2023-03-03T11:50:44.832Z,30.70
2023-03-03T11:52:10.454Z,29.83
2023-03-03T11:53:33.948Z,29.77
2023-03-03T11:54:54.197Z,30.30
2023-03-03T11:56:23.858Z,31.13
2023-03-03T11:57:52.664Z,31.70
2023-03-03T11:59:01.753Z,31.00
2023-03-03T12:00:39.814Z,30.13
2023-03-03T12:02:00.853Z,29.27
2023-03-03T12:03:23.883Z,29.77
2023-03-03T12:04:39.785Z,28.97
2023-03-03T12:05:51.461Z,29.10
2023-03-03T12:07:19.179Z,27.90
2023-03-03T12:08:37.212Z,28.90
2023-03-03T12:09:59.370Z,28.40
2023-03-03T12:11:16.500Z,27.30
2023-03-03T12:12:36.766Z,29.20
2023-03-03T12:14:10.683Z,27.50
2023-03-03T12:15:38.553Z,27.10
2023-03-03T12:17:18.539Z,28.30
2023-03-03T12:18:53.028Z,28.23
2023-03-03T12:20:18.080Z,27.50
2023-03-03T12:21:57.220Z,28.43
2023-03-03T12:23:34.054Z,29.70
2023-03-03T12:25:06.970Z,30.20
2023-03-03T12:26:33.309Z,31.30
2023-03-03T12:28:17.947Z,29.13
2023-03-03T12:29:33.442Z,31.47
2023-03-03T12:30:58.713Z,29.87
2023-03-03T12:32:32.929Z,29.27
2023-03-03T12:33:50.666Z,29.80
2023-03-03T12:35:06.528Z,30.37
2023-03-03T12:36:32.799Z,29.60
2023-03-03T12:38:05.494Z,30.60
2023-03-03T12:39:35.245Z,30.50
2023-03-03T12:40:52.890Z,28.33
2023-03-03T12:42:04.972Z,29.93
2023-03-03T12:43:26.597Z,29.10
2023-03-03T12:44:38.593Z,30.83
2023-03-03T12:45:55.410Z,29.87
2023-03-03T12:47:15.458Z,29.43
2023-03-03T12:48:24.559Z,30.87
2023-03-03T12:50:06.591Z,27.93
2023-03-03T12:51:27.799Z,28.50
2023-03-03T12:52:54.755Z,30.53
2023-03-03T12:54:23.391Z,29.80
2023-03-03T12:55:35.324Z,27.87
2023-03-03T12:56:54.479Z,30.73
2023-03-03T12:58:41.628Z,29.20
2023-03-03T13:00:01.577Z,30.50
2023-03-03T13:01:47.779Z,28.77
2023-03-03T13:02:53.693Z,30.90
2023-03-03T13:04:28.542Z,29.10
2023-03-03T13:05:37.207Z,29.20
2023-03-03T13:06:55.896Z,28.20
2023-03-03T13:08:37.333Z,28.73
2023-03-03T13:09:46.580Z,27.80
2023-03-03T13:11:21.013Z,29.33
2023-03-03T13:12:49.311Z,29.77
2023-03-03T13:14:05.696Z,28.80
2023-03-03T13:15:32.541Z,27.23
2023-03-03T13:16:42.026Z,29.30
2023-03-03T13:18:12.217Z,29.37
2023-03-03T13:19:56.081Z,27.57
2023-03-03T13:21:05.551Z,28.47
2023-03-03T13:22:37.254Z,27.17
2023-03-03T13:23:54.936Z,28.77
2023-03-03T13:25:04.444Z,29.30
2023-03-03T13:26:31.810Z,29.13
2023-03-03T13:27:42.057Z,25.73
2023-03-03T13:29:04.269Z,27.43
2023-03-03T13:30:12.682Z,27.03
2023-03-03T13:31:26.452Z,28.30
2023-03-03T13:32:43.500Z,29.17
2023-03-03T13:33:55.765Z,28.13
2023-03-03T13:35:10.323Z,28.73
2023-03-03T13:36:17.867Z,28.67
2023-03-03T13:37:26.674Z,27.90
2023-03-03T13:38:35.041Z,27.50
2023-03-03T13:39:56.455Z,29.23
2023-03-03T13:41:26.606Z,26.57
2023-03-03T13:42:58.485Z,28.27
2023-03-03T13:44:09.983Z,26.43
2023-03-03T13:45:33.787Z,28.17
2023-03-03T13:46:42.983Z,28.30
2023-03-03T13:48:09.269Z,28.20
2023-03-03T13:49:27.127Z,26.60
2023-03-03T13:50:45.145Z,28.40
2023-03-03T13:52:08.225Z,27.40
2023-03-03T13:53:28.833Z,28.90
2023-03-03T13:54:57.524Z,28.00
2023-03-03T13:56:00.061Z,28.70
2023-03-03T13:57:32.119Z,29.13
2023-03-03T13:59:10.808Z,29.17
2023-03-03T14:00:28.280Z,30.60
2023-03-03T14:01:41.133Z,30.70
2023-03-03T14:02:57.899Z,29.47
2023-03-03T14:04:12.149Z,30.03
2023-03-03T14:05:24.107Z,27.43
2023-03-03T14:06:28.967Z,30.60
2023-03-03T14:08:06.258Z,28.50
2023-03-03T14:09:37.077Z,28.17
2023-03-03T14:11:10.149Z,27.37
2023-03-03T14:12:35.035Z,30.13
2023-03-03T14:14:21.202Z,30.60
2023-03-03T14:15:33.193Z,29.03
2023-03-03T14:16:57.689Z,32.37
2023-03-03T14:18:24.247Z,29.80
2023-03-03T14:19:47.157Z,30.20
2023-03-03T14:21:00.378Z,30.30
2023-03-03T14:22:12.619Z,29.97
2023-03-03T14:23:20.453Z,29.50
2023-03-03T14:24:25.853Z,29.90
2023-03-03T14:25:48.656Z,30.70
2023-03-03T14:26:59.859Z,31.00
2023-03-03T14:28:10.968Z,30.47
2023-03-03T14:29:24.757Z,29.37
2023-03-03T14:30:28.296Z,31.47
2023-03-03T14:31:43.328Z,30.77
2023-03-03T14:33:12.602Z,31.20
2023-03-03T14:34:27.183Z,31.47
2023-03-03T14:35:53.377Z,31.87
2023-03-03T14:37:19.146Z,30.50
2023-03-03T14:38:25.256Z,31.00
2023-03-03T14:39:35.892Z,29.30
2023-03-03T14:40:43.642Z,28.60
2023-03-03T14:41:47.055Z,30.20
2023-03-03T14:42:58.033Z,29.20
2023-03-03T14:44:03.964Z,30.93
2023-03-03T14:45:31.017Z,31.70
2023-03-03T14:46:42.141Z,31.10
2023-03-03T14:47:47.507Z,31.53
2023-03-03T14:48:56.717Z,33.50
2023-03-03T14:50:03.824Z,30.27
2023-03-03T14:51:29.169Z,30.00
2023-03-03T14:52:34.471Z,32.40
2023-03-03T14:53:42.564Z,32.60
2023-03-03T14:54:53.544Z,31.47
2023-03-03T14:56:18.965Z,31.40
2023-03-03T14:57:46.667Z,30.83
2023-03-03T14:58:50.616Z,30.27
2023-03-03T14:59:58.887Z,30.97
2023-03-03T15:01:24.525Z,30.40
2023-03-03T15:02:35.300Z,30.63
2023-03-03T15:03:40.352Z,32.57
2023-03-03T15:04:43.332Z,30.70
2023-03-03T15:05:58.408Z,31.80
2023-03-03T15:07:25.492Z,30.63
2023-03-03T15:08:35.850Z,32.70
2023-03-03T15:09:49.316Z,30.13
2023-03-03T15:10:53.496Z,34.00
2023-03-03T15:12:01.151Z,33.60
2023-03-03T15:13:21.672Z,32.27
2023-03-03T15:14:49.083Z,31.47
2023-03-03T15:16:02.226Z,31.40